National Weather Service United States Department of Commerce

 

Aviation Weather Center TAFs Radar Soundings/Model Data Soaring
NWS Wichita Home Page Hazardous Weather Outlook NWS Graphical Forecasts

 

Wichita (ICT)
Hutchinson (HUT)
Tactical Decision Aid
 
Tactical Decision Aid
 

 
000
FTUS43 KICT 010520
TAFICT
TAF
KICT 010520Z 0106/0206 14010KT P6SM SCT250
FM011500 15007KT P6SM SCT250
FM012300 12009KT P6SM SCT250
FM020500 11005KT P6SM SKC=
 
000
FTUS43 KICT 010520
TAFHUT
TAF
KHUT 010520Z 0106/0206 15010KT P6SM FEW250
FM011600 16010KT P6SM SCT250
FM012000 14012KT P6SM SCT250
FM020000 12009KT P6SM SKC=
Salina (SLN) Russell (RSL)
Tactical Decision Aid
Tactical Decision Aid

 
000
FTUS43 KICT 010520
TAFSLN
TAF
KSLN 010520Z 0106/0206 15008KT P6SM SCT250
FM011600 16010KT P6SM SCT240
FM012100 13012KT P6SM SCT250
FM020400 12006KT P6SM SKC=

 
000
FTUS43 KICT 010520
TAFRSL
TAF
KRSL 010520Z 0106/0206 16011G21KT P6SM SCT250
FM011900 14015KT P6SM SCT250
FM020300 15010KT P6SM FEW250=
Chanute (CNU) Great Bend (GBD)
Tactical Decision Aid
Tactical Decision Aid

 
000
FTUS43 KICT 010520
TAFCNU
TAF
KCNU 010520Z 0106/0206 11006KT P6SM SCT250
FM011800 08007KT P6SM FEW250=

 
000
FTUS43 KICT 010520
TAFGBD
TAF
KGBD 010520Z 0106/0206 16010KT P6SM FEW250
FM011900 16015KT P6SM SCT250
FM020200 14010KT P6SM SKC=
 
NWS Wichita Aviation Forecast Discussion

 

 

IMPORTANT: This page is a tool to help pilots better visualize weather and weather-related hazards, and is not a substitute for a weather briefing obtained from a Flight Service Station (1-800-WXBRIEF). The information contained here does not meet the FAA requirements for a pre-flight weather brief. Therefore, it is important that pilots call and obtain a briefing from an FAA Flight Service Specialist.